Time;durP1;ratioP1;P1;durP2;ratioP2;P2;SDS_P1;SDS_P2;PMS_P1;PMS_P2;Temp;Humidity;BMP_temperature;BMP_pressure;BME280_temperature;BME280_humidity;BME280_pressure;Samples;Min_cycle;Max_cycle;Signal;HPM_P1;HPM_P2
2024/03/11 00:03:53;;;;;;;16.35;8.48;;;;;;;8.90;61.40;98055.94;10433197;28;20073;-60
2024/03/11 00:08:57;;;;;;;14.13;8.48;;;;;;;8.92;61.43;98054.03;10434510;28;20132;-60
2024/03/11 00:13:59;;;;;;;15.30;9.10;;;;;;;8.92;61.54;98055.78;10436835;28;20489;-60
2024/03/11 00:19:01;;;;;;;16.42;9.07;;;;;;;8.94;61.58;98056.50;10436537;28;20139;-60
2024/03/11 00:24:03;;;;;;;20.05;9.38;;;;;;;8.77;61.67;98052.69;10436887;28;20587;-60
2024/03/11 00:29:05;;;;;;;17.83;9.00;;;;;;;8.62;61.92;98064.34;10431870;28;20132;-60
2024/03/11 00:34:08;;;;;;;17.83;9.82;;;;;;;8.66;62.12;98074.41;10430562;28;20028;-59
2024/03/11 00:39:10;;;;;;;16.67;8.77;;;;;;;8.66;62.41;98077.03;10432656;28;20150;-59
2024/03/11 00:44:12;;;;;;;44.30;8.40;;;;;;;8.66;62.77;98078.78;10428911;28;20401;-59
2024/03/11 00:49:16;;;;;;;19.65;7.97;;;;;;;8.69;62.57;98086.34;10433613;28;20064;-59
2024/03/11 00:54:18;;;;;;;15.32;8.38;;;;;;;8.66;62.45;98086.59;10434662;28;20163;-60
2024/03/11 00:59:20;;;;;;;14.45;7.55;;;;;;;8.64;62.57;98086.75;10432714;28;20095;-60
2024/03/11 01:04:22;;;;;;;20.75;8.73;;;;;;;8.72;62.49;98093.94;10416690;28;20068;-59
2024/03/11 01:09:25;;;;;;;16.98;8.98;;;;;;;8.75;62.57;98088.47;10428181;28;20045;-59
2024/03/11 01:14:27;;;;;;;19.85;9.60;;;;;;;8.73;62.70;98079.94;10428445;28;20151;-59
2024/03/11 01:19:29;;;;;;;17.98;9.18;;;;;;;8.55;62.63;98086.63;10408284;28;20067;-59
2024/03/11 01:24:31;;;;;;;18.20;9.95;;;;;;;8.65;63.06;98079.72;10429646;28;20476;-59
2024/03/11 01:29:33;;;;;;;19.83;10.18;;;;;;;8.77;62.68;98083.97;10431377;28;20053;-60
2024/03/11 01:34:41;;;;;;;16.15;9.10;;;;;;;8.76;62.51;98090.97;10444349;28;20112;-59
2024/03/11 01:39:43;;;;;;;17.20;9.35;;;;;;;8.63;62.73;98084.25;10426996;28;20053;-59
2024/03/11 01:44:48;;;;;;;19.02;9.25;;;;;;;8.68;62.85;98095.97;10431168;28;20056;-59
2024/03/11 01:49:52;;;;;;;18.35;9.65;;;;;;;8.71;62.71;98095.69;10432852;28;20041;-60
2024/03/11 01:54:58;;;;;;;18.83;9.88;;;;;;;8.67;62.65;98094.28;10430605;28;20058;-60
2024/03/11 02:00:01;;;;;;;14.85;8.68;;;;;;;8.52;62.89;98089.50;10460704;28;20126;-58
2024/03/11 02:05:09;;;;;;;18.55;10.10;;;;;;;8.48;62.98;98085.50;10424055;28;20049;-59
2024/03/11 02:10:14;;;;;;;22.08;10.60;;;;;;;8.39;63.16;98081.00;10419164;28;20537;-59
2024/03/11 02:15:17;;;;;;;14.25;8.43;;;;;;;8.43;63.30;98066.78;10418266;28;20041;-59
2024/03/11 02:20:21;;;;;;;17.90;8.98;;;;;;;8.38;63.79;98075.00;10419407;28;20391;-59
2024/03/11 02:25:26;;;;;;;16.92;8.13;;;;;;;8.41;63.60;98081.72;10420572;28;20040;-59
2024/03/11 02:30:30;;;;;;;17.25;9.20;;;;;;;8.35;63.92;98079.59;10417553;28;20045;-59
2024/03/11 02:35:32;;;;;;;18.15;9.40;;;;;;;8.45;64.00;98085.72;10419175;28;20055;-59
2024/03/11 02:40:38;;;;;;;17.45;8.10;;;;;;;8.51;63.86;98080.84;10432739;28;20036;-59
2024/03/11 02:45:40;;;;;;;17.13;9.65;;;;;;;8.44;64.27;98086.69;10417924;28;20051;-60
2024/03/11 02:50:42;;;;;;;16.63;8.52;;;;;;;8.45;64.10;98086.56;10419658;28;20036;-60
2024/03/11 02:55:45;;;;;;;13.75;7.13;;;;;;;8.46;64.01;98097.81;10422876;28;20045;-60
2024/03/11 03:00:47;;;;;;;12.25;6.85;;;;;;;8.33;64.50;98094.53;10441984;28;20045;-60
2024/03/11 03:05:48;;;;;;;14.73;6.70;;;;;;;8.11;65.33;98111.03;10432057;28;20151;-60
2024/03/11 03:10:51;;;;;;;10.88;5.68;;;;;;;8.04;65.66;98121.03;10437770;28;20045;-60
2024/03/11 03:15:53;;;;;;;11.43;6.00;;;;;;;8.15;65.33;98117.66;10470242;28;20076;-60
2024/03/11 03:20:55;;;;;;;11.30;5.88;;;;;;;8.17;65.11;98120.97;10429958;28;20068;-60
2024/03/11 03:25:57;;;;;;;9.80;5.10;;;;;;;8.00;66.04;98116.19;10432686;28;20040;-60
2024/03/11 03:30:59;;;;;;;9.65;5.20;;;;;;;7.98;65.68;98115.47;10437634;28;20076;-60
2024/03/11 03:36:04;;;;;;;8.75;4.60;;;;;;;7.90;66.04;98121.28;10470739;28;20057;-60
2024/03/11 03:41:06;;;;;;;7.65;3.95;;;;;;;7.85;65.95;98118.22;10438552;28;20040;-60
2024/03/11 03:46:09;;;;;;;6.68;4.05;;;;;;;7.91;65.52;98127.34;10438985;28;20717;-60
2024/03/11 03:51:11;;;;;;;7.25;3.55;;;;;;;7.94;65.54;98127.91;10438691;28;20072;-59
2024/03/11 03:56:13;;;;;;;5.43;2.53;;;;;;;8.00;65.26;98148.28;10437632;28;20437;-59
2024/03/11 04:01:15;;;;;;;5.78;2.92;;;;;;;7.98;65.22;98151.94;10419785;28;20040;-60
2024/03/11 04:06:19;;;;;;;4.55;2.28;;;;;;;7.91;65.08;98149.00;10437714;28;20060;-59
2024/03/11 04:11:21;;;;;;;3.35;1.92;;;;;;;7.87;65.21;98157.16;10437692;28;20053;-60
2024/03/11 04:16:25;;;;;;;2.28;1.30;;;;;;;7.83;65.26;98166.13;10436226;28;20701;-60
2024/03/11 04:21:27;;;;;;;2.15;1.10;;;;;;;7.81;64.95;98171.44;10436232;28;20056;-59
2024/03/11 04:26:29;;;;;;;1.10;0.90;;;;;;;7.75;64.90;98171.91;10428182;28;20072;-59
2024/03/11 04:31:34;;;;;;;2.30;1.38;;;;;;;7.78;64.85;98184.69;10424051;28;20056;-60
2024/03/11 04:36:37;;;;;;;0.50;0.50;;;;;;;7.66;64.85;98188.22;10435886;28;20575;-59
2024/03/11 04:41:39;;;;;;;0.45;0.45;;;;;;;7.63;64.64;98190.25;10415399;28;20052;-60
2024/03/11 04:46:41;;;;;;;1.27;0.60;;;;;;;7.56;64.77;98205.47;10436932;28;20106;-59
2024/03/11 04:51:43;;;;;;;0.52;0.52;;;;;;;7.53;64.51;98200.50;10433574;28;20490;-59
2024/03/11 04:56:45;;;;;;;1.02;0.90;;;;;;;7.40;64.66;98206.72;10435850;28;20057;-59
2024/03/11 05:01:48;;;;;;;0.38;0.30;;;;;;;7.41;64.61;98209.19;10434111;28;20052;-59
2024/03/11 05:06:50;;;;;;;0.40;0.40;;;;;;;7.36;64.46;98206.13;10434758;28;20099;-60
2024/03/11 05:11:52;;;;;;;0.50;0.40;;;;;;;7.22;64.76;98216.72;10414870;28;20436;-59
2024/03/11 05:16:57;;;;;;;0.20;0.20;;;;;;;7.25;64.76;98215.63;10433776;28;20051;-59
2024/03/11 05:22:01;;;;;;;0.30;0.30;;;;;;;7.27;64.81;98222.41;10433843;28;20064;-60
2024/03/11 05:27:03;;;;;;;0.30;0.30;;;;;;;7.23;64.87;98233.97;10434103;28;20190;-60
2024/03/11 05:32:07;;;;;;;0.38;0.38;;;;;;;7.18;64.67;98236.09;10434098;28;20056;-60
2024/03/11 05:37:09;;;;;;;0.25;0.25;;;;;;;7.13;64.82;98256.38;10434712;28;20523;-59
2024/03/11 05:42:14;;;;;;;3.33;0.98;;;;;;;7.13;64.76;98261.56;10434493;28;20037;-60
2024/03/11 05:47:16;;;;;;;2.47;1.17;;;;;;;7.08;65.16;98269.69;10434709;28;20507;-60
2024/03/11 05:52:20;;;;;;;0.77;0.75;;;;;;;7.14;64.89;98273.66;10432526;28;20157;-60
2024/03/11 05:57:26;;;;;;;2.10;1.20;;;;;;;7.17;64.62;98276.84;10434113;28;20576;-60
2024/03/11 06:02:28;;;;;;;0.30;0.30;;;;;;;7.19;64.89;98279.31;10433382;28;20147;-59
2024/03/11 06:07:30;;;;;;;0.22;0.22;;;;;;;7.08;64.78;98293.09;10434124;28;20120;-60
2024/03/11 06:12:32;;;;;;;0.30;0.30;;;;;;;7.13;64.62;98298.81;10432241;28;20578;-59
2024/03/11 06:17:34;;;;;;;1.15;0.28;;;;;;;7.16;64.58;98297.75;10433445;28;20045;-59
2024/03/11 06:22:37;;;;;;;0.20;0.20;;;;;;;7.04;64.65;98312.44;10415184;28;20041;-59
2024/03/11 06:27:40;;;;;;;0.30;0.30;;;;;;;7.04;64.90;98325.44;10431424;28;20677;-60
2024/03/11 06:32:44;;;;;;;1.88;0.47;;;;;;;6.95;64.97;98333.06;10431966;28;20242;-60
2024/03/11 06:37:47;;;;;;;0.45;0.45;;;;;;;6.93;64.90;98338.38;10432544;28;20037;-60
2024/03/11 06:42:51;;;;;;;0.80;0.40;;;;;;;7.06;64.86;98343.53;10432128;28;20133;-59
2024/03/11 06:47:54;;;;;;;0.22;0.22;;;;;;;7.10;64.78;98345.78;10431541;28;20041;-60
2024/03/11 06:52:56;;;;;;;0.73;0.70;;;;;;;7.19;64.57;98352.13;10430248;28;20269;-60
2024/03/11 06:57:59;;;;;;;0.25;0.25;;;;;;;7.10;64.72;98355.38;10431154;28;20481;-60
2024/03/11 07:03:01;;;;;;;0.32;0.30;;;;;;;7.18;64.47;98353.88;10431998;28;20087;-60
2024/03/11 07:08:06;;;;;;;0.30;0.30;;;;;;;7.26;64.58;98363.75;10431420;28;20475;-60
2024/03/11 07:13:09;;;;;;;0.20;0.20;;;;;;;7.32;64.45;98365.09;10432067;28;20053;-60
2024/03/11 07:18:11;;;;;;;0.20;0.20;;;;;;;7.35;64.58;98376.09;10431452;28;20052;-59
2024/03/11 07:23:13;;;;;;;0.20;0.20;;;;;;;7.29;64.67;98384.31;10430664;28;20332;-60
2024/03/11 07:28:17;;;;;;;0.65;0.50;;;;;;;7.42;64.60;98382.53;10430572;28;20132;-59
2024/03/11 07:33:20;;;;;;;0.35;0.35;;;;;;;7.64;64.10;98387.00;10430294;28;20551;-61
2024/03/11 07:38:23;;;;;;;0.25;0.25;;;;;;;7.74;63.99;98398.41;10432023;28;20049;-60
2024/03/11 07:43:26;;;;;;;1.67;0.45;;;;;;;7.79;63.83;98399.72;10470574;28;20049;-58
2024/03/11 07:48:28;;;;;;;0.60;0.60;;;;;;;7.86;63.79;98408.78;10434126;28;20056;-61
2024/03/11 07:53:30;;;;;;;0.32;0.32;;;;;;;7.96;63.80;98407.16;10463376;28;20052;-61
2024/03/11 07:58:36;;;;;;;1.38;0.55;;;;;;;7.90;63.93;98417.19;10439198;28;20140;-60
2024/03/11 08:03:39;;;;;;;0.63;0.57;;;;;;;7.90;64.07;98425.81;10438548;28;20116;-56
2024/03/11 08:08:41;;;;;;;2.03;1.40;;;;;;;8.15;63.83;98431.88;10437425;28;20132;-54
2024/03/11 08:13:43;;;;;;;1.30;0.95;;;;;;;8.33;63.39;98436.56;10431072;28;20045;-53
2024/03/11 08:18:45;;;;;;;1.17;0.70;;;;;;;8.40;63.50;98436.94;10434157;28;20112;-56
2024/03/11 08:23:47;;;;;;;0.60;0.60;;;;;;;8.44;63.61;98440.97;10416583;28;20060;-56
2024/03/11 08:28:49;;;;;;;0.98;0.70;;;;;;;8.53;63.58;98458.50;10432494;28;20163;-54
2024/03/11 08:33:51;;;;;;;0.82;0.73;;;;;;;8.50;63.89;98467.41;10433489;28;20132;-57
2024/03/11 08:38:53;;;;;;;0.98;0.85;;;;;;;8.58;63.95;98464.22;10432603;28;20045;-56
2024/03/11 08:43:56;;;;;;;3.88;1.23;;;;;;;8.78;63.79;98468.75;10431822;28;20459;-57
2024/03/11 08:48:59;;;;;;;1.35;0.90;;;;;;;8.90;63.57;98470.44;10432752;28;20473;-58
2024/03/11 08:54:03;;;;;;;1.55;1.10;;;;;;;9.09;63.26;98478.53;10432188;28;20064;-54
2024/03/11 08:59:10;;;;;;;1.45;1.02;;;;;;;9.23;63.12;98488.75;10432053;28;20051;-57
2024/03/11 09:04:13;;;;;;;2.58;1.30;;;;;;;9.20;63.07;98507.22;10431705;28;20046;-56
2024/03/11 09:09:15;;;;;;;1.80;1.20;;;;;;;9.33;63.22;98505.34;10431155;28;20478;-57
2024/03/11 09:14:17;;;;;;;2.30;1.10;;;;;;;9.45;62.97;98512.22;10430889;28;20410;-57
2024/03/11 09:19:20;;;;;;;2.40;1.42;;;;;;;9.47;62.76;98520.75;10430356;28;20453;-55
2024/03/11 09:24:24;;;;;;;2.22;1.30;;;;;;;9.34;63.01;98535.69;10431559;28;20083;-57
2024/03/11 09:29:27;;;;;;;3.40;1.40;;;;;;;9.47;63.00;98546.84;10431985;28;20076;-57
2024/03/11 09:34:29;;;;;;;2.05;1.17;;;;;;;9.53;62.90;98553.38;10429991;28;20040;-57
2024/03/11 09:39:31;;;;;;;2.85;1.70;;;;;;;9.77;62.50;98556.72;10429120;28;20393;-53
2024/03/11 09:44:35;;;;;;;2.40;1.30;;;;;;;9.85;62.41;98571.81;10428726;28;20316;-56
2024/03/11 09:49:37;;;;;;;2.25;1.45;;;;;;;9.89;62.27;98570.63;10429802;28;20052;-57
2024/03/11 09:54:40;;;;;;;3.13;1.63;;;;;;;9.96;62.17;98580.44;10426651;28;20052;-57
2024/03/11 09:59:49;;;;;;;2.72;1.67;;;;;;;10.01;62.19;98583.50;10430157;28;20041;-55
2024/03/11 10:04:53;;;;;;;6.25;2.22;;;;;;;10.00;62.20;98592.31;10462408;28;20528;-57
2024/03/11 10:09:56;;;;;;;2.58;1.55;;;;;;;9.97;62.20;98602.19;10412247;28;20068;-56
2024/03/11 10:15:00;;;;;;;2.70;1.50;;;;;;;10.04;62.10;98598.13;10429697;28;20052;-58
2024/03/11 10:20:13;;;;;;;2.67;1.40;;;;;;;10.12;61.79;98600.97;10429585;28;21059;-57
2024/03/11 10:25:24;;;;;;;3.35;1.70;;;;;;;10.49;61.13;98607.53;10428713;28;20067;-57
2024/03/11 10:30:26;;;;;;;4.17;2.00;;;;;;;10.65;61.22;98610.59;10429444;28;20045;-55
2024/03/11 10:35:39;;;;;;;3.17;1.70;;;;;;;11.20;60.68;98612.16;10427921;28;20044;-58
2024/03/11 10:40:44;;;;;;;3.42;1.65;;;;;;;11.49;60.12;98607.09;10428719;28;20057;-57
2024/03/11 10:45:47;;;;;;;6.10;2.15;;;;;;;11.59;59.25;98621.91;10427554;28;20497;-57
2024/03/11 10:50:56;;;;;;;3.58;1.90;;;;;;;11.46;60.03;98618.66;10429578;28;20045;-58
2024/03/11 10:56:00;;;;;;;3.58;1.98;;;;;;;11.59;60.19;98626.31;10428356;28;20041;-57
2024/03/11 11:01:03;;;;;;;4.57;2.40;;;;;;;11.68;60.06;98630.78;10429151;28;20147;-58
2024/03/11 11:06:10;;;;;;;4.43;2.17;;;;;;;11.86;59.04;98637.09;10410360;28;20582;-57
2024/03/11 11:11:17;;;;;;;4.72;2.53;;;;;;;11.76;59.60;98638.81;10428435;28;20075;-58
2024/03/11 11:16:25;;;;;;;5.90;3.40;;;;;;;11.68;59.68;98638.66;10433305;28;20043;-58
2024/03/11 11:21:29;;;;;;;5.40;2.92;;;;;;;11.57;59.72;98647.41;10435588;28;20531;-60
2024/03/11 11:26:42;;;;;;;5.65;2.80;;;;;;;11.67;59.45;98642.22;10436350;28;20052;-57
2024/03/11 11:32:02;;;;;;;6.53;3.13;;;;;;;11.65;58.65;98651.97;10436417;28;20068;-56
2024/03/11 11:37:06;;;;;;;5.43;2.87;;;;;;;11.44;59.67;98665.06;10434030;28;20049;-56
2024/03/11 11:42:37;;;;;;;6.50;3.15;;;;;;;11.64;59.25;98663.44;10432818;28;20041;-53
2024/03/11 11:47:40;;;;;;;5.75;3.17;;;;;;;11.87;59.26;98667.53;10432511;28;20048;-58
2024/03/11 11:52:42;;;;;;;8.07;3.00;;;;;;;12.12;59.01;98662.72;10401349;28;20067;-56
2024/03/11 11:57:47;;;;;;;6.53;3.05;;;;;;;12.28;58.54;98669.22;10434214;28;20588;-58
2024/03/11 12:02:49;;;;;;;5.70;2.88;;;;;;;12.26;58.40;98666.75;10466514;28;20047;-58
2024/03/11 12:07:54;;;;;;;5.78;3.15;;;;;;;12.09;58.12;98659.50;10434553;28;20052;-58
2024/03/11 12:13:00;;;;;;;6.20;3.22;;;;;;;12.38;58.01;98662.25;10432504;28;20508;-56
2024/03/11 12:18:02;;;;;;;6.85;3.50;;;;;;;12.54;57.67;98660.78;10434759;28;20566;-56
2024/03/11 12:23:04;;;;;;;5.05;2.63;;;;;;;12.57;57.08;98663.16;10433090;28;20053;-55
2024/03/11 12:28:14;;;;;;;5.32;2.72;;;;;;;12.63;56.67;98665.25;10431966;28;20292;-57
2024/03/11 12:33:17;;;;;;;6.18;3.20;;;;;;;12.47;56.85;98669.34;10431671;28;20059;-56
2024/03/11 12:38:19;;;;;;;8.45;3.40;;;;;;;12.57;56.43;98675.44;10464830;28;20045;-55
2024/03/11 12:43:30;;;;;;;5.10;2.30;;;;;;;12.76;55.99;98681.53;10432261;28;20135;-55
2024/03/11 12:48:33;;;;;;;5.40;2.83;;;;;;;12.82;56.02;98672.31;10432038;28;20040;-57
2024/03/11 12:53:37;;;;;;;5.70;2.70;;;;;;;12.88;55.32;98688.31;10432884;28;20052;-57
2024/03/11 12:58:39;;;;;;;4.97;2.72;;;;;;;12.94;55.87;98690.41;10432611;28;20053;-56
2024/03/11 13:03:45;;;;;;;5.22;2.38;;;;;;;12.73;55.28;98696.72;10430751;28;20052;-56
2024/03/11 13:08:52;;;;;;;4.95;2.88;;;;;;;13.18;54.88;98699.69;10432113;28;20055;-56
2024/03/11 13:13:56;;;;;;;4.15;2.20;;;;;;;13.22;54.16;98701.06;10433076;28;20056;-56
2024/03/11 13:19:00;;;;;;;4.65;2.22;;;;;;;13.34;54.17;98697.34;10432257;28;20048;-56
2024/03/11 13:24:07;;;;;;;4.72;2.55;;;;;;;13.14;53.59;98706.19;10431143;28;20049;-54
2024/03/11 13:29:09;;;;;;;3.88;2.35;;;;;;;12.64;53.09;98713.28;10432145;28;20053;-57
2024/03/11 13:34:12;;;;;;;4.72;2.30;;;;;;;12.82;53.17;98722.97;10430606;28;20052;-57
2024/03/11 13:39:17;;;;;;;3.05;1.90;;;;;;;12.78;51.38;98716.34;10429406;28;20383;-55
2024/03/11 13:44:22;;;;;;;3.97;1.88;;;;;;;12.55;52.31;98729.81;10431225;28;20060;-57
2024/03/11 13:49:25;;;;;;;7.05;2.60;;;;;;;12.02;52.65;98732.59;10429534;28;20055;-57
2024/03/11 13:54:28;;;;;;;4.28;2.17;;;;;;;11.93;53.43;98737.75;10430595;28;20134;-55
2024/03/11 13:59:32;;;;;;;3.45;1.83;;;;;;;12.41;53.03;98744.13;10428759;28;20045;-56
2024/03/11 14:04:34;;;;;;;2.72;1.60;;;;;;;12.89;52.36;98739.84;10430939;28;20052;-58
2024/03/11 14:09:36;;;;;;;2.90;1.70;;;;;;;12.79;52.06;98746.03;10428684;28;20049;-55
2024/03/11 14:14:40;;;;;;;3.35;1.85;;;;;;;12.55;52.55;98756.03;10429274;28;20041;-56
2024/03/11 14:19:42;;;;;;;5.45;1.90;;;;;;;12.68;51.54;98761.91;10429721;28;20049;-56
2024/03/11 14:24:44;;;;;;;2.88;1.60;;;;;;;12.65;51.00;98767.41;10428814;28;20086;-57
2024/03/11 14:29:46;;;;;;;4.00;2.15;;;;;;;12.91;52.00;98772.03;10429673;28;20115;-57
2024/03/11 14:34:48;;;;;;;4.22;2.22;;;;;;;12.96;51.78;98782.94;10432973;28;20048;-57
2024/03/11 14:39:54;;;;;;;3.58;1.83;;;;;;;12.65;51.51;98781.34;10433481;28;20049;-57
2024/03/11 14:44:57;;;;;;;3.20;2.00;;;;;;;12.37;51.46;98791.72;10431915;28;20102;-56
2024/03/11 14:49:59;;;;;;;3.10;1.83;;;;;;;12.35;51.59;98801.50;10431989;28;20191;-57
2024/03/11 14:55:01;;;;;;;3.85;1.75;;;;;;;12.33;51.22;98806.88;10464998;28;20080;-56
2024/03/11 15:00:10;;;;;;;3.78;1.75;;;;;;;12.34;50.91;98813.78;10432463;28;20053;-58
2024/03/11 15:05:18;;;;;;;2.55;1.40;;;;;;;12.55;50.96;98813.75;10431391;28;20052;-58
2024/03/11 15:10:21;;;;;;;4.43;1.48;;;;;;;12.61;50.55;98816.69;10431704;28;20059;-57
2024/03/11 15:15:25;;;;;;;3.65;1.50;;;;;;;13.07;50.28;98816.13;10431998;28;20045;-56
2024/03/11 15:20:28;;;;;;;1.75;1.30;;;;;;;13.12;49.58;98818.38;10432240;28;20048;-55
2024/03/11 15:25:30;;;;;;;1.85;1.40;;;;;;;12.87;49.65;98820.50;10432422;28;20056;-57
2024/03/11 15:30:33;;;;;;;4.10;1.70;;;;;;;12.50;49.72;98832.47;10430786;28;20033;-56
2024/03/11 15:35:36;;;;;;;3.60;1.80;;;;;;;12.50;49.84;98840.34;10463400;28;20041;-55
2024/03/11 15:40:41;;;;;;;2.25;1.00;;;;;;;12.74;49.28;98843.50;10432603;28;20113;-58
2024/03/11 15:45:44;;;;;;;3.00;1.50;;;;;;;12.69;48.52;98850.94;10431904;28;20052;-56
2024/03/11 15:50:49;;;;;;;2.05;1.20;;;;;;;12.75;47.28;98847.81;10431077;28;20041;-57
2024/03/11 15:55:53;;;;;;;2.00;1.00;;;;;;;12.81;48.19;98856.94;10430196;28;20052;-56
2024/03/11 16:00:56;;;;;;;4.68;1.00;;;;;;;12.62;48.38;98855.03;10433931;28;20045;-57
2024/03/11 16:06:00;;;;;;;2.08;1.00;;;;;;;12.44;48.56;98868.88;10438508;28;20049;-57
2024/03/11 16:11:08;;;;;;;2.03;1.00;;;;;;;12.33;48.57;98882.91;10437796;28;20409;-56
2024/03/11 16:16:11;;;;;;;1.95;0.95;;;;;;;12.27;48.38;98888.63;10434551;28;20433;-56
2024/03/11 16:21:13;;;;;;;1.90;1.05;;;;;;;12.37;48.86;98886.94;10438256;28;20883;-57
2024/03/11 16:26:16;;;;;;;1.17;0.80;;;;;;;12.44;49.12;98890.69;10437606;28;20059;-54
2024/03/11 16:31:20;;;;;;;3.00;0.93;;;;;;;12.52;49.33;98896.13;10470238;28;20051;-58
2024/03/11 16:36:22;;;;;;;1.88;1.00;;;;;;;12.49;48.97;98898.19;10437599;28;20083;-56
2024/03/11 16:41:25;;;;;;;1.80;1.00;;;;;;;12.39;48.93;98899.91;10437642;28;20049;-58
2024/03/11 16:46:28;;;;;;;3.20;1.20;;;;;;;12.27;49.29;98904.38;10435604;28;20524;-58
2024/03/11 16:51:30;;;;;;;1.20;0.77;;;;;;;12.12;49.57;98910.84;10434841;28;20059;-57
2024/03/11 16:56:34;;;;;;;2.83;1.20;;;;;;;11.89;49.48;98922.38;10461532;28;20060;-57
2024/03/11 17:01:39;;;;;;;3.67;1.27;;;;;;;11.63;50.09;98932.34;10427660;28;20095;-57
2024/03/11 17:06:41;;;;;;;0.95;0.90;;;;;;;11.32;50.83;98939.16;10435003;28;20433;-55
2024/03/11 17:11:44;;;;;;;1.83;1.27;;;;;;;11.30;51.20;98942.84;10449161;28;20048;-58
2024/03/11 17:16:47;;;;;;;1.98;1.10;;;;;;;11.20;50.88;98947.97;10432965;28;20409;-58
2024/03/11 17:21:51;;;;;;;1.80;1.25;;;;;;;11.08;50.71;98959.38;10431174;28;20056;-56
2024/03/11 17:26:53;;;;;;;3.60;1.27;;;;;;;11.01;51.00;98963.38;10433299;28;20033;-57
2024/03/11 17:31:55;;;;;;;1.65;1.30;;;;;;;10.89;51.15;98971.34;10432494;28;20128;-57
2024/03/11 17:36:57;;;;;;;6.78;1.45;;;;;;;10.62;51.28;98979.50;10432294;28;20045;-57
2024/03/11 17:41:59;;;;;;;3.97;1.85;;;;;;;10.40;51.74;98984.63;10433002;28;20049;-57
2024/03/11 17:47:03;;;;;;;1.80;1.13;;;;;;;10.22;51.77;98989.44;10433084;28;20143;-58
2024/03/11 17:52:05;;;;;;;2.30;1.02;;;;;;;10.01;51.74;98992.78;10433115;28;20519;-58
2024/03/11 17:57:09;;;;;;;3.10;1.00;;;;;;;9.80;52.21;98999.53;10432486;28;20071;-56
2024/03/11 18:02:11;;;;;;;2.03;1.33;;;;;;;9.56;52.86;98997.69;10430524;28;20045;-57
2024/03/11 18:07:14;;;;;;;3.70;1.33;;;;;;;9.45;53.39;99002.84;10432113;28;20180;-52
2024/03/11 18:12:16;;;;;;;2.95;1.60;;;;;;;9.30;54.03;99009.09;10431832;28;20130;-55
2024/03/11 18:17:20;;;;;;;2.88;1.60;;;;;;;9.08;54.95;99013.28;10432787;28;20087;-54
2024/03/11 18:22:22;;;;;;;3.80;1.92;;;;;;;8.97;55.48;99016.66;10432445;28;20040;-55
2024/03/11 18:27:24;;;;;;;3.13;1.90;;;;;;;8.86;55.93;99013.91;10427079;28;20526;-60
2024/03/11 18:32:28;;;;;;;5.85;1.60;;;;;;;8.72;56.25;99020.06;10425036;28;20044;-60
2024/03/11 18:37:33;;;;;;;2.10;1.45;;;;;;;8.54;56.83;99033.47;10426332;28;20127;-60
2024/03/11 18:42:39;;;;;;;3.20;1.65;;;;;;;8.36;57.22;99047.69;10422890;28;20057;-60
2024/03/11 18:47:46;;;;;;;3.45;1.48;;;;;;;8.13;57.41;99051.75;10408043;28;20076;-59
2024/03/11 18:52:51;;;;;;;1.65;1.27;;;;;;;8.03;57.61;99056.69;10425670;28;20095;-59
2024/03/11 18:58:02;;;;;;;3.63;1.80;;;;;;;7.96;57.86;99054.56;10424368;28;20045;-59
2024/03/11 19:03:05;;;;;;;6.80;2.58;;;;;;;7.95;58.11;99048.53;10425136;28;20049;-59
2024/03/11 19:08:10;;;;;;;6.68;2.70;;;;;;;8.03;58.31;99069.72;10456434;28;20049;-60
2024/03/11 19:13:14;;;;;;;7.00;2.60;;;;;;;8.04;58.21;99073.13;10425703;28;20056;-59
2024/03/11 19:18:16;;;;;;;4.07;1.92;;;;;;;8.01;58.13;99068.97;10442914;28;20041;-60
2024/03/11 19:23:18;;;;;;;3.45;1.58;;;;;;;7.82;58.40;99084.06;10427079;28;20053;-59
2024/03/11 19:28:20;;;;;;;5.68;1.63;;;;;;;7.58;58.88;99088.16;10407933;28;20130;-61
2024/03/11 19:33:23;;;;;;;4.82;1.70;;;;;;;7.38;59.62;99104.16;10427017;28;20160;-59
2024/03/11 19:38:59;;;;;;;4.80;2.30;;;;;;;7.14;60.24;99106.41;10428481;28;20159;-59
2024/03/11 19:44:35;;;;;;;3.05;1.92;;;;;;;7.06;60.14;99113.84;10428108;28;20049;-60
2024/03/11 19:50:21;;;;;;;2.92;1.58;;;;;;;7.00;60.48;99121.16;10431187;28;20484;-60
2024/03/11 19:55:55;;;;;;;6.80;2.38;;;;;;;6.96;60.97;99130.91;10444980;28;20037;-59
2024/03/11 20:01:33;;;;;;;2.83;1.52;;;;;;;7.00;60.80;99136.75;10422733;28;20048;-59
2024/03/11 20:07:08;;;;;;;4.80;1.88;;;;;;;7.17;60.58;99141.81;10421299;28;20443;-59
2024/03/11 20:12:38;;;;;;;3.95;2.10;;;;;;;6.90;60.99;99146.00;10427058;28;20973;-59
2024/03/11 20:18:04;;;;;;;5.38;2.80;;;;;;;6.65;61.69;99150.94;10420208;28;20500;-60
2024/03/11 20:23:46;;;;;;;3.97;2.45;;;;;;;6.53;62.18;99170.63;10446750;28;20049;-59
2024/03/11 20:29:30;;;;;;;3.60;2.22;;;;;;;6.52;62.08;99168.09;10432190;28;20134;-60
2024/03/11 20:34:33;;;;;;;4.57;2.03;;;;;;;6.34;61.51;99172.56;10447637;28;20056;-60
2024/03/11 20:39:37;;;;;;;4.35;2.30;;;;;;;6.33;61.65;99176.91;10432192;28;20041;-59
2024/03/11 20:44:41;;;;;;;3.45;2.10;;;;;;;6.29;61.67;99179.75;10430813;28;20051;-60
2024/03/11 20:49:43;;;;;;;3.78;1.92;;;;;;;6.11;62.24;99193.69;10428908;28;20094;-60
2024/03/11 20:54:45;;;;;;;2.97;1.75;;;;;;;6.04;61.93;99198.34;10430800;28;20041;-60
2024/03/11 20:59:48;;;;;;;3.17;1.85;;;;;;;5.87;62.12;99207.97;10432025;28;20048;-59
2024/03/11 21:04:50;;;;;;;3.70;1.73;;;;;;;5.84;62.23;99208.94;10431260;28;20056;-60
2024/03/11 21:09:52;;;;;;;2.05;1.42;;;;;;;5.77;62.43;99207.59;10431285;28;20053;-59
2024/03/11 21:14:54;;;;;;;1.90;1.25;;;;;;;5.73;62.37;99216.47;10416403;28;20048;-59
2024/03/11 21:20:23;;;;;;;6.80;1.80;;;;;;;5.68;62.13;99228.81;10434409;28;20371;-60
2024/03/11 21:25:42;;;;;;;7.47;1.92;;;;;;;5.57;62.21;99237.13;10432336;28;20044;-59
2024/03/11 21:30:46;;;;;;;4.28;2.60;;;;;;;5.63;62.50;99238.59;10417715;28;20041;-59
2024/03/11 21:35:51;;;;;;;5.10;2.53;;;;;;;5.75;62.61;99239.72;10433315;28;20045;-59
2024/03/11 21:40:53;;;;;;;5.82;2.17;;;;;;;5.90;62.59;99244.97;10432910;28;20047;-59
2024/03/11 21:45:56;;;;;;;13.43;2.67;;;;;;;5.82;62.38;99247.13;10431464;28;20467;-60
2024/03/11 21:50:58;;;;;;;7.03;2.58;;;;;;;5.87;62.71;99249.47;10433200;28;20516;-59
2024/03/11 21:56:01;;;;;;;9.65;2.97;;;;;;;6.11;62.57;99258.59;10432606;28;20037;-59
2024/03/11 22:01:04;;;;;;;5.78;2.65;;;;;;;6.33;62.19;99256.56;10432521;28;20110;-60
2024/03/11 22:06:08;;;;;;;4.63;2.47;;;;;;;6.31;61.93;99261.00;10430200;28;20114;-60
2024/03/11 22:11:10;;;;;;;4.00;1.98;;;;;;;6.31;62.11;99267.03;10433188;28;20469;-60
2024/03/11 22:16:12;;;;;;;3.33;1.80;;;;;;;6.35;61.98;99271.16;10432460;28;20045;-59
2024/03/11 22:21:15;;;;;;;4.13;2.58;;;;;;;6.37;61.92;99270.25;10432065;28;20048;-60
2024/03/11 22:26:18;;;;;;;3.75;2.10;;;;;;;6.35;62.17;99275.50;10431854;28;20056;-60
2024/03/11 22:31:20;;;;;;;3.95;2.40;;;;;;;6.55;62.19;99290.06;10433204;28;20064;-60
2024/03/11 22:36:22;;;;;;;3.80;2.20;;;;;;;6.56;62.12;99296.91;10432430;28;20049;-59
2024/03/11 22:41:26;;;;;;;4.95;2.25;;;;;;;6.65;62.15;99291.22;10431686;28;20049;-59
2024/03/11 22:46:31;;;;;;;4.10;2.30;;;;;;;6.68;62.14;99293.66;10431255;28;20044;-60
2024/03/11 22:51:34;;;;;;;4.70;2.50;;;;;;;6.80;62.13;99295.56;10431216;28;20091;-60
2024/03/11 22:56:36;;;;;;;8.40;2.90;;;;;;;6.73;61.74;99296.84;10432071;28;20139;-59
2024/03/11 23:01:39;;;;;;;4.68;2.10;;;;;;;6.56;62.22;99302.09;10430428;28;20128;-58
2024/03/11 23:06:42;;;;;;;4.82;2.60;;;;;;;6.68;62.27;99306.63;10432199;28;20275;-60
2024/03/11 23:11:46;;;;;;;4.32;2.50;;;;;;;6.69;62.22;99306.56;10434611;28;20636;-59
2024/03/11 23:16:49;;;;;;;4.65;2.17;;;;;;;6.79;62.02;99304.31;10438738;28;20681;-60
2024/03/11 23:21:51;;;;;;;6.70;1.88;;;;;;;6.70;62.19;99304.78;10439224;28;20044;-59
2024/03/11 23:26:54;;;;;;;5.97;3.10;;;;;;;6.82;62.02;99319.72;10438976;28;20060;-59
2024/03/11 23:31:56;;;;;;;5.50;2.80;;;;;;;7.02;61.69;99316.91;10439381;28;20049;-60
2024/03/11 23:36:58;;;;;;;4.22;2.22;;;;;;;6.98;61.56;99317.97;10439348;28;20044;-59
2024/03/11 23:42:01;;;;;;;4.30;2.50;;;;;;;6.96;61.56;99318.06;10438110;28;20397;-59
2024/03/11 23:47:05;;;;;;;4.60;2.08;;;;;;;6.79;61.97;99325.09;10438940;28;20076;-59